sensor_id;sensor_type;location;lat;lon;timestamp;P1;durP1;ratioP1;P2;durP2;ratioP2
15114;SDS011;7658;51.456;7.622;2023-09-19T00:01:07;5.30;;;3.17;;
15114;SDS011;7658;51.456;7.622;2023-09-19T00:03:34;7.10;;;3.70;;
15114;SDS011;7658;51.456;7.622;2023-09-19T00:06:04;8.18;;;3.58;;
15114;SDS011;7658;51.456;7.622;2023-09-19T00:08:32;6.85;;;3.78;;
15114;SDS011;7658;51.456;7.622;2023-09-19T00:10:58;9.38;;;4.05;;
15114;SDS011;7658;51.456;7.622;2023-09-19T00:13:29;9.98;;;3.53;;
15114;SDS011;7658;51.456;7.622;2023-09-19T00:15:55;9.73;;;3.45;;
15114;SDS011;7658;51.456;7.622;2023-09-19T00:18:24;7.18;;;3.40;;
15114;SDS011;7658;51.456;7.622;2023-09-19T00:20:56;8.93;;;4.03;;
15114;SDS011;7658;51.456;7.622;2023-09-19T00:23:22;8.73;;;4.13;;
15114;SDS011;7658;51.456;7.622;2023-09-19T00:25:49;8.32;;;3.78;;
15114;SDS011;7658;51.456;7.622;2023-09-19T00:28:16;7.13;;;4.18;;
15114;SDS011;7658;51.456;7.622;2023-09-19T00:30:43;7.25;;;3.60;;
15114;SDS011;7658;51.456;7.622;2023-09-19T00:33:09;7.72;;;3.88;;
15114;SDS011;7658;51.456;7.622;2023-09-19T00:35:46;12.63;;;4.30;;
15114;SDS011;7658;51.456;7.622;2023-09-19T00:38:15;10.60;;;3.80;;
15114;SDS011;7658;51.456;7.622;2023-09-19T00:40:45;11.07;;;3.85;;
15114;SDS011;7658;51.456;7.622;2023-09-19T00:43:11;9.55;;;3.15;;
15114;SDS011;7658;51.456;7.622;2023-09-19T00:45:37;11.75;;;3.95;;
15114;SDS011;7658;51.456;7.622;2023-09-19T00:48:04;11.32;;;3.60;;
15114;SDS011;7658;51.456;7.622;2023-09-19T00:50:40;10.48;;;3.00;;
15114;SDS011;7658;51.456;7.622;2023-09-19T00:53:07;10.07;;;3.97;;
15114;SDS011;7658;51.456;7.622;2023-09-19T00:55:38;11.43;;;3.70;;
15114;SDS011;7658;51.456;7.622;2023-09-19T00:58:05;13.43;;;3.88;;
15114;SDS011;7658;51.456;7.622;2023-09-19T01:00:32;7.43;;;3.35;;
15114;SDS011;7658;51.456;7.622;2023-09-19T01:03:02;9.10;;;3.75;;
15114;SDS011;7658;51.456;7.622;2023-09-19T01:05:29;8.48;;;3.42;;
15114;SDS011;7658;51.456;7.622;2023-09-19T01:07:55;9.63;;;3.65;;
15114;SDS011;7658;51.456;7.622;2023-09-19T01:10:21;12.60;;;3.78;;
15114;SDS011;7658;51.456;7.622;2023-09-19T01:32:04;9.50;;;4.00;;
15114;SDS011;7658;51.456;7.622;2023-09-19T01:37:18;9.52;;;3.28;;
15114;SDS011;7658;51.456;7.622;2023-09-19T01:39:49;9.43;;;3.65;;
15114;SDS011;7658;51.456;7.622;2023-09-19T01:47:23;11.07;;;4.05;;
15114;SDS011;7658;51.456;7.622;2023-09-19T01:50:02;11.02;;;4.05;;
15114;SDS011;7658;51.456;7.622;2023-09-19T01:53:05;12.05;;;4.70;;
15114;SDS011;7658;51.456;7.622;2023-09-19T01:55:36;7.88;;;3.40;;
15114;SDS011;7658;51.456;7.622;2023-09-19T01:58:31;14.73;;;4.00;;
15114;SDS011;7658;51.456;7.622;2023-09-19T02:00:56;13.15;;;3.78;;
15114;SDS011;7658;51.456;7.622;2023-09-19T02:03:25;11.05;;;3.88;;
15114;SDS011;7658;51.456;7.622;2023-09-19T02:05:52;9.68;;;3.85;;
15114;SDS011;7658;51.456;7.622;2023-09-19T02:08:19;14.43;;;4.15;;
15114;SDS011;7658;51.456;7.622;2023-09-19T02:10:48;14.02;;;4.45;;
15114;SDS011;7658;51.456;7.622;2023-09-19T02:13:18;9.00;;;3.90;;
15114;SDS011;7658;51.456;7.622;2023-09-19T02:15:47;10.73;;;3.83;;
15114;SDS011;7658;51.456;7.622;2023-09-19T02:18:13;11.30;;;3.50;;
15114;SDS011;7658;51.456;7.622;2023-09-19T02:20:42;14.35;;;4.57;;
15114;SDS011;7658;51.456;7.622;2023-09-19T02:23:08;11.38;;;3.83;;
15114;SDS011;7658;51.456;7.622;2023-09-19T02:25:34;11.23;;;3.75;;
15114;SDS011;7658;51.456;7.622;2023-09-19T02:28:01;6.88;;;3.72;;
15114;SDS011;7658;51.456;7.622;2023-09-19T02:30:28;10.73;;;3.80;;
15114;SDS011;7658;51.456;7.622;2023-09-19T02:32:54;12.25;;;4.00;;
15114;SDS011;7658;51.456;7.622;2023-09-19T02:35:20;14.63;;;4.18;;
15114;SDS011;7658;51.456;7.622;2023-09-19T02:37:47;9.80;;;3.63;;
15114;SDS011;7658;51.456;7.622;2023-09-19T02:40:13;14.30;;;3.50;;
15114;SDS011;7658;51.456;7.622;2023-09-19T02:42:52;12.18;;;4.25;;
15114;SDS011;7658;51.456;7.622;2023-09-19T02:45:20;13.02;;;4.00;;
15114;SDS011;7658;51.456;7.622;2023-09-19T02:47:46;13.38;;;3.83;;
15114;SDS011;7658;51.456;7.622;2023-09-19T02:50:13;9.48;;;3.83;;
15114;SDS011;7658;51.456;7.622;2023-09-19T02:52:41;10.80;;;3.75;;
15114;SDS011;7658;51.456;7.622;2023-09-19T02:55:11;12.63;;;4.25;;
15114;SDS011;7658;51.456;7.622;2023-09-19T02:57:39;13.55;;;4.95;;
15114;SDS011;7658;51.456;7.622;2023-09-19T03:00:08;11.18;;;3.88;;
15114;SDS011;7658;51.456;7.622;2023-09-19T03:02:37;12.45;;;4.10;;
15114;SDS011;7658;51.456;7.622;2023-09-19T03:05:05;11.45;;;4.10;;
15114;SDS011;7658;51.456;7.622;2023-09-19T03:07:32;11.00;;;4.13;;
15114;SDS011;7658;51.456;7.622;2023-09-19T03:12:35;12.73;;;4.32;;
15114;SDS011;7658;51.456;7.622;2023-09-19T03:15:01;16.90;;;3.95;;
15114;SDS011;7658;51.456;7.622;2023-09-19T03:17:29;16.45;;;4.40;;
15114;SDS011;7658;51.456;7.622;2023-09-19T03:19:55;11.45;;;4.28;;
15114;SDS011;7658;51.456;7.622;2023-09-19T03:22:22;12.30;;;4.20;;
15114;SDS011;7658;51.456;7.622;2023-09-19T03:24:49;13.88;;;3.65;;
15114;SDS011;7658;51.456;7.622;2023-09-19T03:27:15;13.05;;;4.97;;
15114;SDS011;7658;51.456;7.622;2023-09-19T03:29:41;12.10;;;4.53;;
15114;SDS011;7658;51.456;7.622;2023-09-19T03:32:08;14.90;;;4.40;;
15114;SDS011;7658;51.456;7.622;2023-09-19T03:34:36;12.77;;;3.75;;
15114;SDS011;7658;51.456;7.622;2023-09-19T03:37:07;14.43;;;4.13;;
15114;SDS011;7658;51.456;7.622;2023-09-19T03:39:33;14.05;;;4.07;;
15114;SDS011;7658;51.456;7.622;2023-09-19T03:42:00;14.57;;;4.25;;
15114;SDS011;7658;51.456;7.622;2023-09-19T03:44:26;10.73;;;4.50;;
15114;SDS011;7658;51.456;7.622;2023-09-19T03:46:52;10.77;;;4.00;;
15114;SDS011;7658;51.456;7.622;2023-09-19T03:49:17;13.52;;;4.80;;
15114;SDS011;7658;51.456;7.622;2023-09-19T03:51:44;14.63;;;4.05;;
15114;SDS011;7658;51.456;7.622;2023-09-19T03:54:09;11.20;;;3.88;;
15114;SDS011;7658;51.456;7.622;2023-09-19T03:56:35;7.38;;;3.72;;
15114;SDS011;7658;51.456;7.622;2023-09-19T03:59:01;15.13;;;3.95;;
15114;SDS011;7658;51.456;7.622;2023-09-19T04:01:27;9.30;;;3.85;;
15114;SDS011;7658;51.456;7.622;2023-09-19T04:03:55;12.07;;;3.70;;
15114;SDS011;7658;51.456;7.622;2023-09-19T04:06:21;13.13;;;3.95;;
15114;SDS011;7658;51.456;7.622;2023-09-19T04:08:48;12.27;;;3.90;;
15114;SDS011;7658;51.456;7.622;2023-09-19T04:11:14;11.25;;;4.03;;
15114;SDS011;7658;51.456;7.622;2023-09-19T04:13:40;11.45;;;3.92;;
15114;SDS011;7658;51.456;7.622;2023-09-19T04:16:06;14.45;;;4.38;;
15114;SDS011;7658;51.456;7.622;2023-09-19T04:18:32;12.73;;;4.15;;
15114;SDS011;7658;51.456;7.622;2023-09-19T04:21:02;12.07;;;3.95;;
15114;SDS011;7658;51.456;7.622;2023-09-19T04:23:29;11.57;;;4.20;;
15114;SDS011;7658;51.456;7.622;2023-09-19T04:25:56;14.32;;;4.40;;
15114;SDS011;7658;51.456;7.622;2023-09-19T04:28:22;12.88;;;3.65;;
15114;SDS011;7658;51.456;7.622;2023-09-19T04:30:49;12.18;;;3.70;;
15114;SDS011;7658;51.456;7.622;2023-09-19T04:33:15;11.00;;;4.20;;
15114;SDS011;7658;51.456;7.622;2023-09-19T04:35:41;14.25;;;4.03;;
15114;SDS011;7658;51.456;7.622;2023-09-19T04:38:10;12.88;;;4.25;;
15114;SDS011;7658;51.456;7.622;2023-09-19T04:40:36;10.43;;;4.00;;
15114;SDS011;7658;51.456;7.622;2023-09-19T04:43:04;18.92;;;4.13;;
15114;SDS011;7658;51.456;7.622;2023-09-19T04:45:31;10.23;;;3.35;;
15114;SDS011;7658;51.456;7.622;2023-09-19T04:47:56;12.98;;;3.60;;
15114;SDS011;7658;51.456;7.622;2023-09-19T04:50:22;11.73;;;3.90;;
15114;SDS011;7658;51.456;7.622;2023-09-19T04:52:50;15.98;;;4.38;;
15114;SDS011;7658;51.456;7.622;2023-09-19T04:55:16;11.23;;;3.78;;
15114;SDS011;7658;51.456;7.622;2023-09-19T04:57:44;12.77;;;4.35;;
15114;SDS011;7658;51.456;7.622;2023-09-19T05:00:15;15.07;;;4.93;;
15114;SDS011;7658;51.456;7.622;2023-09-19T05:02:49;16.50;;;4.13;;
15114;SDS011;7658;51.456;7.622;2023-09-19T05:05:20;12.13;;;4.03;;
15114;SDS011;7658;51.456;7.622;2023-09-19T05:07:47;9.27;;;3.50;;
15114;SDS011;7658;51.456;7.622;2023-09-19T05:10:13;13.35;;;3.83;;
15114;SDS011;7658;51.456;7.622;2023-09-19T05:12:40;14.27;;;4.65;;
15114;SDS011;7658;51.456;7.622;2023-09-19T05:15:06;12.07;;;4.72;;
15114;SDS011;7658;51.456;7.622;2023-09-19T05:17:33;16.48;;;4.38;;
15114;SDS011;7658;51.456;7.622;2023-09-19T05:19:59;11.43;;;4.43;;
15114;SDS011;7658;51.456;7.622;2023-09-19T05:22:48;9.88;;;3.97;;
15114;SDS011;7658;51.456;7.622;2023-09-19T05:25:15;11.73;;;4.47;;
15114;SDS011;7658;51.456;7.622;2023-09-19T05:27:43;13.57;;;4.00;;
15114;SDS011;7658;51.456;7.622;2023-09-19T05:30:09;10.48;;;3.92;;
15114;SDS011;7658;51.456;7.622;2023-09-19T05:32:35;12.70;;;4.15;;
15114;SDS011;7658;51.456;7.622;2023-09-19T05:35:01;15.50;;;4.68;;
15114;SDS011;7658;51.456;7.622;2023-09-19T05:37:28;9.32;;;4.28;;
15114;SDS011;7658;51.456;7.622;2023-09-19T05:39:54;11.10;;;4.22;;
15114;SDS011;7658;51.456;7.622;2023-09-19T05:42:20;12.88;;;4.45;;
15114;SDS011;7658;51.456;7.622;2023-09-19T05:44:46;15.00;;;4.47;;
15114;SDS011;7658;51.456;7.622;2023-09-19T05:47:11;11.65;;;4.55;;
15114;SDS011;7658;51.456;7.622;2023-09-19T05:49:38;9.50;;;4.88;;
15114;SDS011;7658;51.456;7.622;2023-09-19T05:52:05;10.45;;;4.10;;
15114;SDS011;7658;51.456;7.622;2023-09-19T05:54:31;13.07;;;4.05;;
15114;SDS011;7658;51.456;7.622;2023-09-19T05:56:59;13.32;;;4.32;;
15114;SDS011;7658;51.456;7.622;2023-09-19T05:59:26;15.32;;;5.53;;
15114;SDS011;7658;51.456;7.622;2023-09-19T06:01:52;10.85;;;4.32;;
15114;SDS011;7658;51.456;7.622;2023-09-19T06:04:18;12.10;;;4.15;;
15114;SDS011;7658;51.456;7.622;2023-09-19T06:06:44;15.15;;;4.45;;
15114;SDS011;7658;51.456;7.622;2023-09-19T06:09:13;9.77;;;4.45;;
15114;SDS011;7658;51.456;7.622;2023-09-19T06:11:41;12.25;;;3.80;;
15114;SDS011;7658;51.456;7.622;2023-09-19T06:14:07;11.82;;;3.85;;
15114;SDS011;7658;51.456;7.622;2023-09-19T06:16:35;14.57;;;4.22;;
15114;SDS011;7658;51.456;7.622;2023-09-19T06:19:03;12.70;;;3.90;;
15114;SDS011;7658;51.456;7.622;2023-09-19T06:21:31;9.18;;;4.03;;
15114;SDS011;7658;51.456;7.622;2023-09-19T06:23:57;10.43;;;4.28;;
15114;SDS011;7658;51.456;7.622;2023-09-19T06:26:24;11.70;;;4.05;;
15114;SDS011;7658;51.456;7.622;2023-09-19T06:28:52;13.70;;;4.30;;
15114;SDS011;7658;51.456;7.622;2023-09-19T06:31:17;16.48;;;4.72;;
15114;SDS011;7658;51.456;7.622;2023-09-19T06:33:43;10.00;;;3.92;;
15114;SDS011;7658;51.456;7.622;2023-09-19T06:36:09;10.75;;;4.35;;
15114;SDS011;7658;51.456;7.622;2023-09-19T06:38:36;14.20;;;4.20;;
15114;SDS011;7658;51.456;7.622;2023-09-19T06:41:04;14.48;;;4.22;;
15114;SDS011;7658;51.456;7.622;2023-09-19T06:43:30;19.88;;;4.75;;
15114;SDS011;7658;51.456;7.622;2023-09-19T06:45:57;11.20;;;3.83;;
15114;SDS011;7658;51.456;7.622;2023-09-19T06:48:24;16.35;;;4.72;;
15114;SDS011;7658;51.456;7.622;2023-09-19T06:50:50;18.10;;;4.97;;
15114;SDS011;7658;51.456;7.622;2023-09-19T06:53:17;13.32;;;4.00;;
15114;SDS011;7658;51.456;7.622;2023-09-19T06:55:44;16.13;;;4.38;;
15114;SDS011;7658;51.456;7.622;2023-09-19T06:58:10;17.60;;;4.20;;
15114;SDS011;7658;51.456;7.622;2023-09-19T07:00:36;15.35;;;4.80;;
15114;SDS011;7658;51.456;7.622;2023-09-19T07:05:33;13.70;;;4.30;;
15114;SDS011;7658;51.456;7.622;2023-09-19T07:08:04;16.13;;;4.90;;
15114;SDS011;7658;51.456;7.622;2023-09-19T07:10:33;16.90;;;4.82;;
15114;SDS011;7658;51.456;7.622;2023-09-19T07:12:59;9.85;;;4.32;;
15114;SDS011;7658;51.456;7.622;2023-09-19T07:15:27;12.50;;;4.30;;
15114;SDS011;7658;51.456;7.622;2023-09-19T07:17:56;13.77;;;4.55;;
15114;SDS011;7658;51.456;7.622;2023-09-19T07:20:22;16.02;;;4.50;;
15114;SDS011;7658;51.456;7.622;2023-09-19T07:22:54;14.07;;;4.53;;
15114;SDS011;7658;51.456;7.622;2023-09-19T07:25:25;12.05;;;4.60;;
15114;SDS011;7658;51.456;7.622;2023-09-19T07:27:51;15.18;;;4.50;;
15114;SDS011;7658;51.456;7.622;2023-09-19T07:30:17;10.60;;;3.90;;
15114;SDS011;7658;51.456;7.622;2023-09-19T07:32:42;11.82;;;4.60;;
15114;SDS011;7658;51.456;7.622;2023-09-19T07:35:08;12.30;;;4.80;;
15114;SDS011;7658;51.456;7.622;2023-09-19T07:37:34;17.38;;;5.05;;
15114;SDS011;7658;51.456;7.622;2023-09-19T07:40:01;14.70;;;4.95;;
15114;SDS011;7658;51.456;7.622;2023-09-19T07:42:36;18.85;;;4.75;;
15114;SDS011;7658;51.456;7.622;2023-09-19T07:45:05;15.15;;;4.78;;
15114;SDS011;7658;51.456;7.622;2023-09-19T07:47:32;12.32;;;4.53;;
15114;SDS011;7658;51.456;7.622;2023-09-19T07:49:59;12.95;;;4.10;;
15114;SDS011;7658;51.456;7.622;2023-09-19T07:52:27;15.05;;;4.80;;
15114;SDS011;7658;51.456;7.622;2023-09-19T07:54:54;14.32;;;4.05;;
15114;SDS011;7658;51.456;7.622;2023-09-19T07:57:22;13.48;;;4.32;;
15114;SDS011;7658;51.456;7.622;2023-09-19T07:59:48;12.88;;;4.63;;
15114;SDS011;7658;51.456;7.622;2023-09-19T08:02:13;15.95;;;4.35;;
15114;SDS011;7658;51.456;7.622;2023-09-19T08:04:44;14.23;;;4.55;;
15114;SDS011;7658;51.456;7.622;2023-09-19T08:07:14;19.50;;;5.28;;
15114;SDS011;7658;51.456;7.622;2023-09-19T08:09:40;13.50;;;4.47;;
15114;SDS011;7658;51.456;7.622;2023-09-19T08:12:06;12.85;;;4.55;;
15114;SDS011;7658;51.456;7.622;2023-09-19T08:14:35;17.17;;;5.20;;
15114;SDS011;7658;51.456;7.622;2023-09-19T08:17:02;17.00;;;4.35;;
15114;SDS011;7658;51.456;7.622;2023-09-19T08:19:30;13.32;;;4.63;;
15114;SDS011;7658;51.456;7.622;2023-09-19T08:22:00;12.82;;;4.10;;
15114;SDS011;7658;51.456;7.622;2023-09-19T08:24:27;14.27;;;4.90;;
15114;SDS011;7658;51.456;7.622;2023-09-19T08:26:57;13.95;;;4.40;;
15114;SDS011;7658;51.456;7.622;2023-09-19T08:29:24;14.75;;;4.18;;
15114;SDS011;7658;51.456;7.622;2023-09-19T08:31:53;11.00;;;3.92;;
15114;SDS011;7658;51.456;7.622;2023-09-19T08:34:21;12.43;;;4.88;;
15114;SDS011;7658;51.456;7.622;2023-09-19T08:36:48;11.40;;;4.50;;
15114;SDS011;7658;51.456;7.622;2023-09-19T08:39:23;13.20;;;4.22;;
15114;SDS011;7658;51.456;7.622;2023-09-19T08:41:59;12.35;;;4.07;;
15114;SDS011;7658;51.456;7.622;2023-09-19T08:44:27;9.45;;;3.83;;
15114;SDS011;7658;51.456;7.622;2023-09-19T08:46:55;11.95;;;4.20;;
15114;SDS011;7658;51.456;7.622;2023-09-19T08:49:53;11.88;;;4.13;;
15114;SDS011;7658;51.456;7.622;2023-09-19T08:52:36;11.77;;;4.35;;
15114;SDS011;7658;51.456;7.622;2023-09-19T08:55:07;12.40;;;4.07;;
15114;SDS011;7658;51.456;7.622;2023-09-19T08:57:38;11.15;;;4.18;;
15114;SDS011;7658;51.456;7.622;2023-09-19T09:00:07;11.63;;;4.68;;
15114;SDS011;7658;51.456;7.622;2023-09-19T09:02:40;12.05;;;4.38;;
15114;SDS011;7658;51.456;7.622;2023-09-19T09:05:08;11.48;;;4.60;;
15114;SDS011;7658;51.456;7.622;2023-09-19T09:07:36;14.75;;;4.25;;
15114;SDS011;7658;51.456;7.622;2023-09-19T09:10:03;13.80;;;4.38;;
15114;SDS011;7658;51.456;7.622;2023-09-19T09:12:29;13.43;;;4.75;;
15114;SDS011;7658;51.456;7.622;2023-09-19T09:14:56;15.38;;;4.90;;
15114;SDS011;7658;51.456;7.622;2023-09-19T09:17:25;15.90;;;4.78;;
15114;SDS011;7658;51.456;7.622;2023-09-19T09:19:54;11.68;;;4.53;;
15114;SDS011;7658;51.456;7.622;2023-09-19T09:22:20;9.75;;;4.57;;
15114;SDS011;7658;51.456;7.622;2023-09-19T09:24:53;15.57;;;4.18;;
15114;SDS011;7658;51.456;7.622;2023-09-19T09:27:22;15.10;;;5.07;;
15114;SDS011;7658;51.456;7.622;2023-09-19T09:29:49;16.70;;;4.22;;
15114;SDS011;7658;51.456;7.622;2023-09-19T09:32:16;7.93;;;3.95;;
15114;SDS011;7658;51.456;7.622;2023-09-19T09:34:50;12.98;;;4.55;;
15114;SDS011;7658;51.456;7.622;2023-09-19T09:37:20;8.93;;;4.15;;
15114;SDS011;7658;51.456;7.622;2023-09-19T09:39:57;10.70;;;4.10;;
15114;SDS011;7658;51.456;7.622;2023-09-19T09:42:41;8.98;;;3.78;;
15114;SDS011;7658;51.456;7.622;2023-09-19T09:47:58;10.20;;;4.00;;
15114;SDS011;7658;51.456;7.622;2023-09-19T09:50:34;12.55;;;4.05;;
15114;SDS011;7658;51.456;7.622;2023-09-19T09:53:19;11.75;;;3.78;;
15114;SDS011;7658;51.456;7.622;2023-09-19T10:01:13;14.95;;;4.43;;
15114;SDS011;7658;51.456;7.622;2023-09-19T10:03:41;8.85;;;3.92;;
15114;SDS011;7658;51.456;7.622;2023-09-19T10:06:13;12.13;;;3.83;;
15114;SDS011;7658;51.456;7.622;2023-09-19T10:09:05;9.02;;;4.00;;
15114;SDS011;7658;51.456;7.622;2023-09-19T10:11:40;12.30;;;3.85;;
15114;SDS011;7658;51.456;7.622;2023-09-19T10:14:11;8.40;;;3.83;;
15114;SDS011;7658;51.456;7.622;2023-09-19T10:16:48;13.00;;;4.38;;
15114;SDS011;7658;51.456;7.622;2023-09-19T10:22:23;12.07;;;4.25;;
15114;SDS011;7658;51.456;7.622;2023-09-19T10:24:52;12.15;;;4.22;;
15114;SDS011;7658;51.456;7.622;2023-09-19T10:27:21;10.00;;;3.35;;
15114;SDS011;7658;51.456;7.622;2023-09-19T10:29:51;16.80;;;3.60;;
15114;SDS011;7658;51.456;7.622;2023-09-19T10:32:22;10.70;;;4.10;;
15114;SDS011;7658;51.456;7.622;2023-09-19T10:34:48;10.52;;;3.63;;
15114;SDS011;7658;51.456;7.622;2023-09-19T10:37:18;12.70;;;4.15;;
15114;SDS011;7658;51.456;7.622;2023-09-19T10:39:47;7.85;;;3.67;;
15114;SDS011;7658;51.456;7.622;2023-09-19T10:42:16;10.90;;;4.13;;
15114;SDS011;7658;51.456;7.622;2023-09-19T10:44:45;8.35;;;3.72;;
15114;SDS011;7658;51.456;7.622;2023-09-19T10:47:18;8.13;;;3.55;;
15114;SDS011;7658;51.456;7.622;2023-09-19T10:49:45;14.00;;;3.70;;
15114;SDS011;7658;51.456;7.622;2023-09-19T10:52:12;11.07;;;4.20;;
15114;SDS011;7658;51.456;7.622;2023-09-19T10:54:46;11.45;;;4.80;;
15114;SDS011;7658;51.456;7.622;2023-09-19T10:57:22;11.40;;;3.65;;
15114;SDS011;7658;51.456;7.622;2023-09-19T11:05:37;11.38;;;3.90;;
15114;SDS011;7658;51.456;7.622;2023-09-19T11:08:07;8.93;;;3.00;;
15114;SDS011;7658;51.456;7.622;2023-09-19T11:10:47;9.73;;;3.45;;
15114;SDS011;7658;51.456;7.622;2023-09-19T11:13:23;9.40;;;4.63;;
15114;SDS011;7658;51.456;7.622;2023-09-19T11:18:50;11.48;;;3.63;;
15114;SDS011;7658;51.456;7.622;2023-09-19T11:27:10;13.23;;;3.47;;
15114;SDS011;7658;51.456;7.622;2023-09-19T11:29:42;9.65;;;3.10;;
15114;SDS011;7658;51.456;7.622;2023-09-19T11:32:08;6.05;;;2.97;;
15114;SDS011;7658;51.456;7.622;2023-09-19T11:34:41;6.50;;;3.03;;
15114;SDS011;7658;51.456;7.622;2023-09-19T11:39:38;8.20;;;3.28;;
15114;SDS011;7658;51.456;7.622;2023-09-19T11:48:15;8.55;;;3.25;;
15114;SDS011;7658;51.456;7.622;2023-09-19T11:50:43;20.35;;;4.32;;
15114;SDS011;7658;51.456;7.622;2023-09-19T11:53:12;8.20;;;2.90;;
15114;SDS011;7658;51.456;7.622;2023-09-19T11:55:39;10.15;;;3.22;;
15114;SDS011;7658;51.456;7.622;2023-09-19T11:58:08;8.70;;;3.50;;
15114;SDS011;7658;51.456;7.622;2023-09-19T12:00:37;6.45;;;3.05;;
15114;SDS011;7658;51.456;7.622;2023-09-19T12:03:08;7.15;;;3.13;;
15114;SDS011;7658;51.456;7.622;2023-09-19T12:05:35;6.80;;;2.70;;
15114;SDS011;7658;51.456;7.622;2023-09-19T12:08:02;5.55;;;2.70;;
15114;SDS011;7658;51.456;7.622;2023-09-19T12:10:47;8.48;;;3.42;;
15114;SDS011;7658;51.456;7.622;2023-09-19T12:13:17;8.20;;;2.90;;
15114;SDS011;7658;51.456;7.622;2023-09-19T12:15:44;9.27;;;3.05;;
15114;SDS011;7658;51.456;7.622;2023-09-19T12:18:31;9.65;;;3.40;;
15114;SDS011;7658;51.456;7.622;2023-09-19T12:20:57;6.57;;;2.92;;
15114;SDS011;7658;51.456;7.622;2023-09-19T12:23:23;7.97;;;3.17;;
15114;SDS011;7658;51.456;7.622;2023-09-19T12:25:50;8.77;;;2.80;;
15114;SDS011;7658;51.456;7.622;2023-09-19T12:28:19;9.70;;;3.10;;
15114;SDS011;7658;51.456;7.622;2023-09-19T12:30:48;6.13;;;3.22;;
15114;SDS011;7658;51.456;7.622;2023-09-19T12:33:15;5.38;;;2.90;;
15114;SDS011;7658;51.456;7.622;2023-09-19T12:35:45;8.52;;;2.88;;
15114;SDS011;7658;51.456;7.622;2023-09-19T12:38:13;8.95;;;2.90;;
15114;SDS011;7658;51.456;7.622;2023-09-19T12:40:49;6.15;;;2.85;;
15114;SDS011;7658;51.456;7.622;2023-09-19T12:43:16;12.15;;;3.38;;
15114;SDS011;7658;51.456;7.622;2023-09-19T12:45:43;7.47;;;2.70;;
15114;SDS011;7658;51.456;7.622;2023-09-19T12:51:05;6.68;;;2.85;;
15114;SDS011;7658;51.456;7.622;2023-09-19T12:53:35;6.22;;;2.80;;
15114;SDS011;7658;51.456;7.622;2023-09-19T12:56:05;6.97;;;3.00;;
15114;SDS011;7658;51.456;7.622;2023-09-19T12:58:33;7.65;;;3.17;;
15114;SDS011;7658;51.456;7.622;2023-09-19T13:01:15;6.13;;;2.88;;
15114;SDS011;7658;51.456;7.622;2023-09-19T13:03:42;9.35;;;2.97;;
15114;SDS011;7658;51.456;7.622;2023-09-19T13:06:08;9.68;;;3.03;;
15114;SDS011;7658;51.456;7.622;2023-09-19T13:08:35;7.85;;;2.78;;
15114;SDS011;7658;51.456;7.622;2023-09-19T13:11:13;7.95;;;3.13;;
15114;SDS011;7658;51.456;7.622;2023-09-19T13:13:46;6.35;;;3.25;;
15114;SDS011;7658;51.456;7.622;2023-09-19T13:16:17;7.20;;;3.08;;
15114;SDS011;7658;51.456;7.622;2023-09-19T13:18:51;7.03;;;3.05;;
15114;SDS011;7658;51.456;7.622;2023-09-19T13:21:39;8.73;;;2.80;;
15114;SDS011;7658;51.456;7.622;2023-09-19T13:26:50;6.90;;;2.90;;
15114;SDS011;7658;51.456;7.622;2023-09-19T13:29:16;9.85;;;3.38;;
15114;SDS011;7658;51.456;7.622;2023-09-19T13:31:50;6.70;;;2.58;;
15114;SDS011;7658;51.456;7.622;2023-09-19T13:34:19;7.47;;;2.75;;
15114;SDS011;7658;51.456;7.622;2023-09-19T13:36:46;6.00;;;2.60;;
15114;SDS011;7658;51.456;7.622;2023-09-19T13:39:15;6.13;;;2.60;;
15114;SDS011;7658;51.456;7.622;2023-09-19T13:41:42;5.80;;;2.72;;
15114;SDS011;7658;51.456;7.622;2023-09-19T13:44:10;7.13;;;2.78;;
15114;SDS011;7658;51.456;7.622;2023-09-19T13:46:36;6.57;;;3.10;;
15114;SDS011;7658;51.456;7.622;2023-09-19T13:49:02;10.95;;;3.33;;
15114;SDS011;7658;51.456;7.622;2023-09-19T13:51:31;11.75;;;2.88;;
15114;SDS011;7658;51.456;7.622;2023-09-19T13:53:57;9.35;;;2.95;;
15114;SDS011;7658;51.456;7.622;2023-09-19T13:56:24;6.10;;;2.53;;
15114;SDS011;7658;51.456;7.622;2023-09-19T13:58:52;5.10;;;2.55;;
15114;SDS011;7658;51.456;7.622;2023-09-19T14:01:19;6.65;;;2.72;;
15114;SDS011;7658;51.456;7.622;2023-09-19T14:03:45;3.30;;;2.08;;
15114;SDS011;7658;51.456;7.622;2023-09-19T14:06:14;3.92;;;2.05;;
15114;SDS011;7658;51.456;7.622;2023-09-19T14:08:43;5.57;;;2.50;;
15114;SDS011;7658;51.456;7.622;2023-09-19T14:11:13;8.43;;;2.60;;
15114;SDS011;7658;51.456;7.622;2023-09-19T14:13:40;6.90;;;2.58;;
15114;SDS011;7658;51.456;7.622;2023-09-19T14:16:06;9.32;;;2.85;;
15114;SDS011;7658;51.456;7.622;2023-09-19T14:18:33;7.70;;;2.70;;
15114;SDS011;7658;51.456;7.622;2023-09-19T14:21:06;11.15;;;4.00;;
15114;SDS011;7658;51.456;7.622;2023-09-19T14:23:37;5.55;;;2.35;;
15114;SDS011;7658;51.456;7.622;2023-09-19T14:26:14;7.50;;;2.55;;
15114;SDS011;7658;51.456;7.622;2023-09-19T14:29:07;4.53;;;2.53;;
15114;SDS011;7658;51.456;7.622;2023-09-19T14:31:34;7.30;;;2.33;;
15114;SDS011;7658;51.456;7.622;2023-09-19T14:34:05;8.88;;;2.13;;
15114;SDS011;7658;51.456;7.622;2023-09-19T14:36:31;6.30;;;2.20;;
15114;SDS011;7658;51.456;7.622;2023-09-19T14:38:58;6.85;;;2.45;;
15114;SDS011;7658;51.456;7.622;2023-09-19T14:41:24;4.45;;;2.40;;
15114;SDS011;7658;51.456;7.622;2023-09-19T14:43:51;5.10;;;2.50;;
15114;SDS011;7658;51.456;7.622;2023-09-19T14:46:17;5.85;;;2.40;;
15114;SDS011;7658;51.456;7.622;2023-09-19T14:48:43;4.88;;;2.20;;
15114;SDS011;7658;51.456;7.622;2023-09-19T14:51:12;5.00;;;2.25;;
15114;SDS011;7658;51.456;7.622;2023-09-19T14:53:40;5.63;;;1.92;;
15114;SDS011;7658;51.456;7.622;2023-09-19T14:56:09;3.42;;;2.20;;
15114;SDS011;7658;51.456;7.622;2023-09-19T14:58:36;3.53;;;2.00;;
15114;SDS011;7658;51.456;7.622;2023-09-19T15:01:08;5.00;;;2.10;;
15114;SDS011;7658;51.456;7.622;2023-09-19T15:03:38;5.13;;;2.05;;
15114;SDS011;7658;51.456;7.622;2023-09-19T15:06:05;6.93;;;2.10;;
15114;SDS011;7658;51.456;7.622;2023-09-19T15:08:34;4.85;;;2.20;;
15114;SDS011;7658;51.456;7.622;2023-09-19T15:11:06;3.95;;;2.13;;
15114;SDS011;7658;51.456;7.622;2023-09-19T15:13:33;8.43;;;2.05;;
15114;SDS011;7658;51.456;7.622;2023-09-19T15:16:03;5.78;;;2.40;;
15114;SDS011;7658;51.456;7.622;2023-09-19T15:18:30;6.75;;;2.30;;
15114;SDS011;7658;51.456;7.622;2023-09-19T15:20:56;5.32;;;2.10;;
15114;SDS011;7658;51.456;7.622;2023-09-19T15:23:25;6.30;;;2.38;;
15114;SDS011;7658;51.456;7.622;2023-09-19T15:25:51;5.95;;;2.10;;
15114;SDS011;7658;51.456;7.622;2023-09-19T15:28:18;4.30;;;1.80;;
15114;SDS011;7658;51.456;7.622;2023-09-19T15:30:48;5.07;;;1.90;;
15114;SDS011;7658;51.456;7.622;2023-09-19T15:33:22;6.28;;;1.92;;
15114;SDS011;7658;51.456;7.622;2023-09-19T15:35:48;3.88;;;1.92;;
15114;SDS011;7658;51.456;7.622;2023-09-19T15:38:13;6.18;;;2.33;;
15114;SDS011;7658;51.456;7.622;2023-09-19T15:40:55;3.15;;;1.85;;
15114;SDS011;7658;51.456;7.622;2023-09-19T15:43:21;4.43;;;2.10;;
15114;SDS011;7658;51.456;7.622;2023-09-19T15:45:48;6.22;;;2.20;;
15114;SDS011;7658;51.456;7.622;2023-09-19T15:48:14;5.95;;;2.10;;
15114;SDS011;7658;51.456;7.622;2023-09-19T15:50:41;3.35;;;1.98;;
15114;SDS011;7658;51.456;7.622;2023-09-19T15:53:09;3.83;;;2.10;;
15114;SDS011;7658;51.456;7.622;2023-09-19T15:55:40;3.65;;;1.83;;
15114;SDS011;7658;51.456;7.622;2023-09-19T15:58:06;6.05;;;1.67;;
15114;SDS011;7658;51.456;7.622;2023-09-19T16:00:50;2.65;;;2.17;;
15114;SDS011;7658;51.456;7.622;2023-09-19T16:03:16;6.22;;;2.10;;
15114;SDS011;7658;51.456;7.622;2023-09-19T16:05:42;3.50;;;1.90;;
15114;SDS011;7658;51.456;7.622;2023-09-19T16:08:08;7.72;;;2.47;;
15114;SDS011;7658;51.456;7.622;2023-09-19T16:10:34;6.43;;;1.90;;
15114;SDS011;7658;51.456;7.622;2023-09-19T16:13:02;3.20;;;1.80;;
15114;SDS011;7658;51.456;7.622;2023-09-19T16:15:28;8.02;;;2.00;;